createdAt,value
2019-01-31T00:02:29.127Z,78.47
2019-01-31T00:05:26.771Z,84.03
2019-01-31T00:08:45.472Z,78.23
2019-01-31T00:11:37.489Z,92.37
2019-01-31T00:14:40.981Z,89.23
2019-01-31T00:17:51.864Z,85.10
2019-01-31T00:21:06.975Z,95.20
2019-01-31T00:23:57.508Z,90.70
2019-01-31T00:27:22.138Z,89.57
2019-01-31T00:30:41.183Z,83.87
2019-01-31T00:33:54.278Z,80.37
2019-01-31T00:36:48.966Z,73.03
2019-01-31T00:40:11.146Z,77.47
2019-01-31T00:43:04.987Z,77.27
2019-01-31T00:46:23.562Z,77.30
2019-01-31T00:49:30.738Z,81.63
2019-01-31T00:52:38.555Z,79.70
2019-01-31T00:55:43.203Z,81.37
2019-01-31T00:58:45.005Z,82.17
2019-01-31T01:01:36.745Z,73.80
2019-01-31T01:04:57.257Z,79.73
2019-01-31T01:08:07.827Z,79.07
2019-01-31T01:10:52.269Z,67.73
2019-01-31T01:13:55.630Z,74.60
2019-01-31T01:17:12.546Z,81.97
2019-01-31T01:19:56.201Z,66.43
2019-01-31T01:22:40.459Z,69.70
2019-01-31T01:25:53.205Z,68.80
2019-01-31T01:29:15.498Z,72.47
2019-01-31T01:32:31.772Z,74.23
2019-01-31T01:35:53.854Z,86.07
2019-01-31T01:39:19.630Z,80.47
2019-01-31T01:42:22.913Z,79.67
2019-01-31T01:45:34.651Z,75.30
2019-01-31T01:48:24.532Z,71.97
2019-01-31T01:51:26.998Z,74.07
2019-01-31T01:54:41.842Z,75.77
2019-01-31T01:57:50.033Z,68.53
2019-01-31T02:01:08.641Z,73.83
2019-01-31T02:04:24.611Z,81.53
2019-01-31T02:07:20.683Z,77.10
2019-01-31T02:10:29.903Z,75.27
2019-01-31T02:13:37.313Z,68.97
2019-01-31T02:16:32.527Z,70.40
2019-01-31T02:19:14.568Z,72.90
2019-01-31T02:22:18.649Z,65.63
2019-01-31T02:25:05.318Z,72.33
2019-01-31T02:28:12.188Z,73.33
2019-01-31T02:31:18.245Z,70.03
2019-01-31T02:34:16.296Z,73.13
2019-01-31T02:37:26.846Z,75.73
2019-01-31T02:40:14.099Z,67.27
2019-01-31T02:43:00.631Z,78.17
2019-01-31T02:46:22.565Z,72.17
2019-01-31T02:49:26.820Z,72.53
2019-01-31T02:52:27.302Z,77.27
2019-01-31T02:55:28.683Z,71.50
2019-01-31T02:58:31.100Z,73.43
2019-01-31T03:01:32.584Z,89.77
2019-01-31T03:04:32.316Z,83.70
2019-01-31T03:07:45.927Z,83.53
2019-01-31T03:10:45.779Z,85.60
2019-01-31T03:13:45.717Z,85.20
2019-01-31T03:16:44.722Z,85.73
2019-01-31T03:20:08.850Z,99.37
2019-01-31T03:23:06.626Z,84.13
2019-01-31T03:26:14.920Z,77.87
2019-01-31T03:29:17.145Z,86.77
2019-01-31T03:32:11.571Z,83.23
2019-01-31T03:35:12.238Z,130.10
2019-01-31T03:38:15.556Z,101.13
2019-01-31T03:41:34.062Z,93.13
2019-01-31T03:45:01.676Z,90.20
2019-01-31T03:48:13.358Z,93.53
2019-01-31T03:51:03.017Z,85.20
2019-01-31T03:54:23.166Z,89.07
2019-01-31T03:57:30.007Z,86.33
2019-01-31T04:00:58.078Z,84.67
2019-01-31T04:03:37.661Z,84.47
2019-01-31T04:06:23.377Z,91.63
2019-01-31T04:08:55.608Z,78.87
2019-01-31T04:11:27.218Z,89.13
2019-01-31T04:13:59.067Z,83.70
2019-01-31T04:16:30.692Z,95.80
2019-01-31T04:19:02.408Z,101.73
2019-01-31T04:21:34.107Z,104.17
2019-01-31T04:24:06.212Z,117.87
2019-01-31T04:26:37.914Z,104.63
2019-01-31T04:29:09.587Z,116.37
2019-01-31T04:31:41.266Z,102.80
2019-01-31T04:34:12.903Z,119.10
2019-01-31T04:36:44.493Z,128.30
2019-01-31T04:39:16.128Z,99.70
2019-01-31T04:41:47.757Z,101.57
2019-01-31T04:44:19.480Z,116.87
2019-01-31T04:46:51.113Z,108.90
2019-01-31T04:49:22.794Z,118.20
2019-01-31T04:51:54.899Z,92.20
2019-01-31T04:54:26.848Z,99.80
2019-01-31T04:56:59.043Z,97.57
2019-01-31T04:59:30.778Z,105.00
2019-01-31T05:02:02.388Z,103.30
2019-01-31T05:04:33.995Z,101.30
2019-01-31T05:07:05.704Z,104.80
2019-01-31T05:09:37.391Z,103.30
2019-01-31T05:12:09.092Z,110.43
2019-01-31T05:14:40.796Z,100.50
2019-01-31T05:17:12.404Z,106.17
2019-01-31T05:19:44.092Z,120.23
2019-01-31T05:22:15.764Z,116.07
2019-01-31T05:24:47.473Z,118.73
2019-01-31T05:27:19.147Z,102.20
2019-01-31T05:29:50.842Z,104.93
2019-01-31T05:32:22.449Z,98.17
2019-01-31T05:34:54.162Z,100.13
2019-01-31T05:37:25.980Z,102.83
2019-01-31T05:39:58.656Z,109.40
2019-01-31T05:42:30.355Z,106.67
2019-01-31T05:45:02.071Z,122.93
2019-01-31T05:47:33.738Z,141.63
2019-01-31T05:50:05.934Z,160.57
2019-01-31T05:52:37.595Z,156.07
2019-01-31T05:55:09.338Z,156.50
2019-01-31T05:57:40.957Z,165.10
2019-01-31T06:00:15.949Z,153.17
2019-01-31T06:02:47.625Z,167.27
2019-01-31T06:05:19.341Z,155.70
2019-01-31T06:07:51.026Z,143.77
2019-01-31T06:10:22.743Z,126.50
2019-01-31T06:12:54.370Z,147.70
2019-01-31T06:15:26.063Z,146.63
2019-01-31T06:17:58.779Z,234.43
2019-01-31T06:20:30.454Z,214.57
2019-01-31T06:23:02.156Z,218.27
2019-01-31T06:25:33.859Z,205.93
2019-01-31T06:28:05.523Z,155.73
2019-01-31T06:30:37.231Z,137.23
2019-01-31T06:33:08.925Z,136.20
2019-01-31T06:35:40.657Z,136.80
2019-01-31T06:38:12.943Z,124.77
2019-01-31T06:40:44.572Z,144.37
2019-01-31T06:43:16.448Z,133.03
2019-01-31T06:45:48.629Z,142.70
2019-01-31T06:48:20.306Z,153.40
2019-01-31T06:50:51.957Z,175.80
2019-01-31T06:53:23.582Z,197.07
2019-01-31T06:55:55.623Z,176.37
2019-01-31T06:58:27.249Z,167.37
2019-01-31T07:00:59.146Z,165.27
2019-01-31T07:03:31.929Z,161.93
2019-01-31T07:06:03.560Z,177.67
2019-01-31T07:08:35.247Z,171.03
2019-01-31T07:11:06.941Z,160.13
2019-01-31T07:13:38.591Z,149.00
2019-01-31T07:16:10.212Z,144.83
2019-01-31T07:18:42.914Z,145.97
2019-01-31T07:21:14.605Z,153.70
2019-01-31T07:23:46.316Z,160.83
2019-01-31T07:26:17.949Z,134.47
2019-01-31T07:28:49.635Z,126.63
2019-01-31T07:31:21.343Z,134.50
2019-01-31T07:33:53.033Z,128.57
2019-01-31T07:36:25.067Z,124.20
2019-01-31T07:38:56.914Z,129.50
2019-01-31T07:41:40.902Z,126.47
2019-01-31T07:44:06.749Z,125.77
2019-01-31T07:46:38.500Z,136.97
2019-01-31T07:49:10.252Z,115.93
2019-01-31T07:51:41.994Z,116.70
2019-01-31T07:54:13.793Z,130.77
2019-01-31T07:56:45.638Z,118.90
2019-01-31T07:59:17.398Z,111.20
2019-01-31T08:01:49.158Z,121.30
2019-01-31T08:04:20.913Z,112.70
2019-01-31T08:06:52.663Z,143.53
2019-01-31T08:09:24.434Z,121.47
2019-01-31T08:11:56.218Z,115.27
2019-01-31T08:14:29.036Z,118.80
2019-01-31T08:17:00.773Z,109.50
2019-01-31T08:19:32.540Z,109.90
2019-01-31T08:22:04.310Z,131.83
2019-01-31T08:24:36.099Z,108.17
2019-01-31T08:27:09.429Z,135.67
2019-01-31T08:29:41.210Z,110.50
2019-01-31T08:32:19.217Z,111.90
2019-01-31T08:34:51.026Z,101.77
2019-01-31T08:37:26.956Z,107.93
2019-01-31T08:39:59.273Z,112.60
2019-01-31T08:42:31.079Z,122.90
2019-01-31T08:45:02.825Z,137.57
2019-01-31T08:47:34.571Z,134.93
2019-01-31T08:50:07.448Z,123.77
2019-01-31T08:52:41.635Z,123.43
2019-01-31T08:55:12.775Z,125.33
2019-01-31T08:57:53.721Z,122.00
2019-01-31T09:00:27.037Z,100.00
2019-01-31T09:02:59.155Z,101.27
2019-01-31T09:05:30.932Z,102.67
2019-01-31T09:08:02.892Z,107.80
2019-01-31T09:10:39.097Z,116.03
2019-01-31T09:13:12.357Z,112.23
2019-01-31T09:15:45.714Z,107.13
2019-01-31T09:18:18.139Z,107.33
2019-01-31T09:20:59.553Z,155.90
2019-01-31T09:24:08.675Z,226.53
2019-01-31T09:27:15.613Z,120.27
2019-01-31T09:30:28.974Z,131.30
2019-01-31T09:33:47.100Z,127.20
2019-01-31T09:36:52.679Z,124.20
2019-01-31T09:40:01.463Z,126.40
2019-01-31T09:43:04.368Z,125.33
2019-01-31T09:46:20.359Z,534.50
2019-01-31T09:49:45.883Z,588.97
2019-01-31T09:52:55.850Z,455.97
2019-01-31T09:55:49.598Z,576.73
2019-01-31T09:58:55.905Z,224.37
2019-01-31T10:02:03.297Z,167.90
2019-01-31T10:04:57.423Z,227.63
2019-01-31T10:07:47.727Z,223.40
2019-01-31T10:11:05.439Z,222.50
2019-01-31T10:14:30.226Z,312.17
2019-01-31T10:17:41.014Z,405.03
2019-01-31T10:21:00.242Z,226.90
2019-01-31T10:24:24.897Z,232.60
2019-01-31T10:27:47.078Z,160.03
2019-01-31T10:30:55.358Z,453.73
2019-01-31T10:33:57.677Z,585.53
2019-01-31T10:37:17.607Z,220.97
2019-01-31T10:40:36.377Z,155.37
2019-01-31T10:43:48.210Z,252.03
2019-01-31T10:47:00.628Z,265.23
2019-01-31T10:50:05.267Z,162.43
2019-01-31T10:53:09.895Z,124.93
2019-01-31T10:56:21.887Z,134.33
2019-01-31T10:59:29.003Z,310.30
2019-01-31T11:02:51.542Z,131.97
2019-01-31T11:05:53.070Z,110.03
2019-01-31T11:09:02.225Z,168.80
2019-01-31T11:12:13.118Z,173.77
2019-01-31T11:15:05.256Z,138.70
2019-01-31T11:18:14.507Z,138.50
2019-01-31T11:21:16.620Z,123.37
2019-01-31T11:24:35.478Z,132.53
2019-01-31T11:27:53.902Z,107.27
2019-01-31T11:30:56.462Z,109.40
2019-01-31T11:34:32.459Z,110.60
2019-01-31T11:37:26.248Z,108.83
2019-01-31T11:40:57.464Z,120.83
2019-01-31T11:43:56.108Z,112.27
2019-01-31T11:47:12.467Z,124.50
2019-01-31T11:50:05.428Z,97.07
2019-01-31T11:53:05.338Z,86.97
2019-01-31T11:56:22.309Z,103.67
2019-01-31T11:59:05.812Z,93.53
2019-01-31T12:01:38.930Z,130.67
2019-01-31T12:04:15.881Z,180.07
2019-01-31T12:06:48.315Z,127.60
2019-01-31T12:09:21.205Z,109.23
2019-01-31T12:11:53.357Z,98.83
2019-01-31T12:14:27.008Z,127.87
2019-01-31T12:16:59.799Z,120.80
2019-01-31T12:19:33.292Z,79.20
2019-01-31T12:22:06.539Z,96.23
2019-01-31T12:24:39.410Z,87.93
2019-01-31T12:27:11.615Z,97.67
2019-01-31T12:29:43.717Z,88.27
2019-01-31T12:32:15.545Z,80.60
2019-01-31T12:34:47.264Z,80.77
2019-01-31T12:37:22.250Z,75.53
2019-01-31T12:39:54.484Z,79.33
2019-01-31T12:42:26.857Z,79.70
2019-01-31T12:44:59.051Z,73.37
2019-01-31T12:47:31.326Z,79.80
2019-01-31T12:50:03.312Z,95.67
2019-01-31T12:52:35.158Z,83.33
2019-01-31T12:55:06.926Z,84.57
2019-01-31T12:57:39.767Z,83.37
2019-01-31T13:00:30.796Z,65.60
2019-01-31T13:03:02.763Z,70.93
2019-01-31T13:05:34.727Z,69.47
2019-01-31T13:08:06.623Z,79.07
2019-01-31T13:10:38.580Z,82.30
2019-01-31T13:13:10.812Z,78.03
2019-01-31T13:15:42.919Z,67.90
2019-01-31T13:18:14.626Z,60.90
2019-01-31T13:20:47.029Z,57.97
2019-01-31T13:23:20.494Z,76.10
2019-01-31T13:25:52.902Z,81.47
2019-01-31T13:28:25.140Z,92.40
2019-01-31T13:30:57.412Z,87.77
2019-01-31T13:33:31.570Z,82.50
2019-01-31T13:36:03.593Z,225.00
2019-01-31T13:38:36.176Z,164.57
2019-01-31T13:41:07.999Z,116.83
2019-01-31T13:43:39.680Z,115.83
2019-01-31T13:46:12.629Z,108.00
2019-01-31T13:48:47.467Z,124.37
2019-01-31T13:51:20.158Z,125.20
2019-01-31T13:53:52.101Z,151.80
2019-01-31T13:56:23.740Z,155.20
2019-01-31T13:58:56.073Z,306.03
2019-01-31T14:01:29.354Z,190.07
2019-01-31T14:04:00.959Z,233.07
2019-01-31T14:06:32.757Z,182.07
2019-01-31T14:09:06.015Z,169.77
2019-01-31T14:11:40.810Z,145.63
2019-01-31T14:14:14.222Z,176.63
2019-01-31T14:16:48.137Z,203.40
2019-01-31T14:19:19.919Z,378.90
2019-01-31T14:21:54.932Z,155.77
2019-01-31T14:24:26.617Z,156.27
2019-01-31T14:26:58.494Z,144.70
2019-01-31T14:29:30.281Z,290.97
2019-01-31T14:32:02.296Z,808.37
2019-01-31T14:34:33.972Z,823.50
2019-01-31T14:37:05.691Z,989.00
2019-01-31T14:39:37.399Z,646.53
2019-01-31T14:42:09.123Z,475.03
2019-01-31T14:44:40.851Z,333.53
2019-01-31T14:47:12.571Z,254.73
2019-01-31T14:49:44.269Z,345.73
2019-01-31T14:52:15.960Z,230.00
2019-01-31T14:54:47.729Z,238.17
2019-01-31T14:57:19.437Z,225.73
2019-01-31T14:59:51.047Z,191.90
2019-01-31T15:02:22.739Z,170.17
2019-01-31T15:04:54.455Z,158.63
2019-01-31T15:07:28.669Z,167.60
2019-01-31T15:10:00.606Z,157.10
2019-01-31T15:12:32.536Z,153.27
2019-01-31T15:15:06.165Z,159.33
2019-01-31T15:17:38.266Z,173.80
2019-01-31T15:20:16.494Z,162.20
2019-01-31T15:22:48.186Z,177.67
2019-01-31T15:25:19.867Z,176.13
2019-01-31T15:27:51.569Z,181.37
2019-01-31T15:30:28.191Z,169.37
2019-01-31T15:33:00.420Z,165.27
2019-01-31T15:35:32.264Z,186.20
2019-01-31T15:38:03.943Z,191.53
2019-01-31T15:40:37.759Z,189.83
2019-01-31T15:43:09.469Z,210.33
2019-01-31T15:45:41.537Z,206.37
2019-01-31T15:48:17.630Z,246.20
2019-01-31T15:50:50.981Z,246.10
2019-01-31T15:53:23.266Z,263.40
2019-01-31T15:55:55.190Z,233.53
2019-01-31T15:58:26.922Z,244.10
2019-01-31T16:01:00.386Z,280.47
2019-01-31T16:03:32.883Z,284.43
2019-01-31T16:06:07.147Z,307.57
2019-01-31T16:08:38.260Z,309.83
2019-01-31T16:11:10.008Z,295.47
2019-01-31T16:13:41.810Z,257.27
2019-01-31T16:16:13.496Z,262.83
2019-01-31T16:18:45.216Z,310.03
2019-01-31T16:21:16.913Z,316.30
2019-01-31T16:23:48.593Z,310.67
2019-01-31T16:26:20.207Z,318.30
2019-01-31T16:28:51.905Z,311.77
2019-01-31T16:31:23.593Z,308.50
2019-01-31T16:33:55.612Z,332.40
2019-01-31T16:36:27.472Z,328.40
2019-01-31T16:38:59.562Z,352.73
2019-01-31T16:41:31.162Z,380.80
2019-01-31T16:44:02.867Z,397.50
2019-01-31T16:46:36.502Z,393.17
2019-01-31T16:49:07.976Z,417.27
2019-01-31T16:51:39.607Z,448.10
2019-01-31T16:54:11.317Z,471.47
2019-01-31T16:56:42.948Z,503.57
2019-01-31T16:59:14.679Z,523.53
2019-01-31T17:01:46.451Z,517.30
2019-01-31T17:04:18.097Z,539.47
2019-01-31T17:06:49.778Z,552.83
2019-01-31T17:09:21.472Z,525.30
2019-01-31T17:11:53.139Z,556.27
2019-01-31T17:14:24.835Z,564.27
2019-01-31T17:16:56.608Z,595.80
2019-01-31T17:19:28.580Z,626.17
2019-01-31T17:22:00.423Z,641.43
2019-01-31T17:24:32.361Z,709.97
2019-01-31T17:27:05.047Z,732.57
2019-01-31T17:29:36.765Z,791.37
2019-01-31T17:32:08.486Z,763.07
2019-01-31T17:34:40.215Z,742.63
2019-01-31T17:37:11.864Z,797.13
2019-01-31T17:39:43.574Z,815.73
2019-01-31T17:42:15.218Z,806.80
2019-01-31T17:44:46.925Z,772.37
2019-01-31T17:47:18.617Z,784.13
2019-01-31T17:49:50.359Z,753.60
2019-01-31T17:52:22.045Z,757.60
2019-01-31T17:54:55.986Z,748.23
2019-01-31T17:57:27.426Z,731.00
2019-01-31T17:59:59.368Z,733.10
2019-01-31T18:02:31.052Z,705.17
2019-01-31T18:05:02.770Z,668.10
2019-01-31T18:07:34.482Z,672.83
2019-01-31T18:10:08.860Z,649.00
2019-01-31T18:12:40.551Z,636.97
2019-01-31T18:15:12.287Z,624.37
2019-01-31T18:17:43.998Z,582.20
2019-01-31T18:20:19.445Z,573.97
2019-01-31T18:22:52.281Z,538.80
2019-01-31T18:25:23.924Z,579.63
2019-01-31T18:27:55.617Z,563.07
2019-01-31T18:30:28.509Z,556.27
2019-01-31T18:33:00.492Z,520.20
2019-01-31T18:35:32.455Z,498.17
2019-01-31T18:38:04.151Z,476.83
2019-01-31T18:40:35.760Z,470.73
2019-01-31T18:43:07.609Z,472.53
2019-01-31T18:45:39.301Z,496.87
2019-01-31T18:48:10.990Z,450.77
2019-01-31T18:50:43.561Z,431.77
2019-01-31T18:53:15.282Z,397.80
2019-01-31T18:55:46.983Z,375.90
2019-01-31T18:58:18.680Z,325.43
2019-01-31T19:00:51.991Z,281.43
2019-01-31T19:03:23.760Z,278.37
2019-01-31T19:05:55.688Z,296.83
2019-01-31T19:08:27.512Z,297.00
2019-01-31T19:10:59.602Z,347.67
2019-01-31T19:13:31.293Z,554.47
2019-01-31T19:16:05.553Z,549.87
2019-01-31T19:18:38.124Z,681.60
2019-01-31T19:21:09.854Z,917.10
2019-01-31T19:23:41.567Z,724.80
2019-01-31T19:26:13.259Z,967.33
2019-01-31T19:28:44.953Z,829.73
2019-01-31T19:31:16.654Z,863.17
2019-01-31T19:33:48.365Z,894.13
2019-01-31T19:36:20.084Z,654.43
2019-01-31T19:38:51.897Z,651.20
2019-01-31T19:41:23.619Z,633.60
2019-01-31T19:43:55.635Z,518.50
2019-01-31T19:46:27.581Z,561.57
2019-01-31T19:48:59.523Z,375.67
2019-01-31T19:51:31.289Z,431.17
2019-01-31T19:54:03.076Z,359.83
2019-01-31T19:56:35.957Z,371.17
2019-01-31T19:59:08.344Z,390.33
2019-01-31T20:01:41.144Z,358.07
2019-01-31T20:04:14.341Z,356.17
2019-01-31T20:06:46.381Z,348.23
2019-01-31T20:09:21.657Z,296.20
2019-01-31T20:11:53.407Z,271.50
2019-01-31T20:14:25.402Z,449.17
2019-01-31T20:16:57.558Z,286.57
2019-01-31T20:19:29.846Z,273.50
2019-01-31T20:22:02.924Z,531.77
2019-01-31T20:24:34.645Z,569.03
2019-01-31T20:27:06.453Z,764.20
2019-01-31T20:29:38.239Z,514.97
2019-01-31T20:32:11.077Z,341.80
2019-01-31T20:34:44.205Z,230.80
2019-01-31T20:37:16.243Z,230.80
2019-01-31T20:39:49.085Z,289.30
2019-01-31T20:42:21.372Z,451.87
2019-01-31T20:44:54.167Z,460.67
2019-01-31T20:47:26.240Z,383.50
2019-01-31T20:49:58.311Z,362.37
2019-01-31T20:52:32.725Z,344.30
2019-01-31T20:55:04.886Z,374.77
2019-01-31T20:57:37.716Z,305.90
2019-01-31T21:00:14.848Z,474.93
2019-01-31T21:02:48.560Z,384.83
2019-01-31T21:05:20.584Z,403.67
2019-01-31T21:07:52.415Z,404.13
2019-01-31T21:10:26.395Z,289.93
2019-01-31T21:12:57.553Z,301.80
2019-01-31T21:15:30.632Z,376.13
2019-01-31T21:18:02.369Z,318.60
2019-01-31T21:20:34.095Z,277.43
2019-01-31T21:23:06.586Z,276.53
2019-01-31T21:25:38.464Z,234.77
2019-01-31T21:28:12.280Z,195.67
2019-01-31T21:30:44.238Z,206.83
2019-01-31T21:33:16.288Z,243.57
2019-01-31T21:35:47.999Z,210.57
2019-01-31T21:38:19.714Z,237.80
2019-01-31T21:40:51.437Z,265.43
2019-01-31T21:43:23.422Z,272.20
2019-01-31T21:45:55.053Z,261.93
2019-01-31T21:48:30.514Z,261.07
2019-01-31T21:51:02.678Z,244.23
2019-01-31T21:53:36.439Z,256.27
2019-01-31T21:56:07.844Z,231.93
2019-01-31T21:58:39.549Z,235.83
2019-01-31T22:01:11.276Z,245.97
2019-01-31T22:03:43.020Z,229.07
2019-01-31T22:06:22.309Z,252.87
2019-01-31T22:08:48.075Z,290.63
2019-01-31T22:11:19.808Z,300.57
2019-01-31T22:13:51.491Z,265.80
2019-01-31T22:16:23.162Z,244.83
2019-01-31T22:18:54.831Z,257.27
2019-01-31T22:21:26.842Z,239.10
2019-01-31T22:23:58.464Z,232.13
2019-01-31T22:26:30.136Z,237.40
2019-01-31T22:29:01.841Z,230.30
2019-01-31T22:31:33.513Z,213.63
2019-01-31T22:34:06.336Z,229.67
2019-01-31T22:36:38.027Z,226.87
2019-01-31T22:39:09.871Z,240.87
2019-01-31T22:41:41.552Z,238.53
2019-01-31T22:44:13.177Z,231.33
2019-01-31T22:46:44.786Z,220.17
2019-01-31T22:49:17.369Z,214.00
2019-01-31T22:51:49.034Z,221.17
2019-01-31T22:54:20.666Z,194.90
2019-01-31T22:56:52.270Z,198.97
2019-01-31T22:59:23.942Z,196.97
2019-01-31T23:01:59.932Z,188.77
2019-01-31T23:04:31.612Z,191.03
2019-01-31T23:07:03.367Z,204.27
2019-01-31T23:09:35.142Z,224.63
2019-01-31T23:12:06.822Z,224.63
2019-01-31T23:14:38.555Z,232.03
2019-01-31T23:17:10.170Z,206.50
2019-01-31T23:19:41.873Z,207.50
2019-01-31T23:22:13.468Z,204.13
2019-01-31T23:24:45.178Z,239.57
2019-01-31T23:27:16.827Z,188.93
2019-01-31T23:29:48.501Z,182.20
2019-01-31T23:32:20.185Z,183.90
2019-01-31T23:34:51.897Z,185.57
2019-01-31T23:37:23.561Z,210.33
2019-01-31T23:39:55.194Z,204.83
2019-01-31T23:42:26.880Z,221.73
2019-01-31T23:44:58.939Z,213.57
2019-01-31T23:47:30.857Z,193.07
2019-01-31T23:50:02.815Z,188.07
2019-01-31T23:52:34.683Z,190.80
2019-01-31T23:55:06.877Z,175.93
2019-01-31T23:57:38.552Z,199.30
